首页
METAR-TAF:

METAR-TAF

机场 :

Valdosta Regional Airport

Valdosta, 喬治亞, 美国

纬度: 30-47N, 经度: 083-17W, 海拔: 62米

当前天气观测

该预报发布于31分钟前的13:53 UTC
风速3节,风向
温度 9°C
湿度 49%
气压 1027 hPa
能見度: 16.1公里
天空无云

METAR: KVLD 231353Z 01003KT 10SM CLR 09/M01 A3033 RMK AO2 SLP280 T00891011 $

时间: 09:24 (14:24 UTC)

预报

该预报发布于2小时和44分钟前的11:40 UTC
预报有效从23日的 12点(UTC)到 24日的 12点(UTC)
风速节,风向
能見度: 10公里
少量云层高于18000英尺
从 23日的 2200点(UTC)
风速节,风向
能見度: 10公里
多云层高于15000英尺
从 24日的 0500点(UTC)
风速节,风向
能見度: 10公里
散云层高于12000英尺

TAF: KVLD 231140Z 2312/2412 00000KT P6SM FEW180 FM232200 00000KT P6SM BKN150 FM240500 00000KT P6SM SCT120

超过4000个机场的气象观测和天气预报(METAR&TAF报告)。

可查询的气象台以黄色和红色小点在地图上表示。

将鼠标移到小点上方,可查看气象台名称。

然后点击查看天气观测和预报。

如需切换地图:点击带黑十字的绿色按钮放大地图;点击带横线的绿色按钮缩小地图;或者点击绿色箭头查看邻近地区的地图。


METAR-TAF: